Time;durP1;ratioP1;P1;durP2;ratioP2;P2;SDS_P1;SDS_P2;PMS_P1;PMS_P2;Temp;Humidity;BMP_temperature;BMP_pressure;BME280_temperature;BME280_humidity;BME280_pressure;Samples;Min_cycle;Max_cycle;Signal;HPM_P1;HPM_P2
2023/05/11 00:01:07;;;;;;;12.02;7.93;;;11.30;99.90;;;;;;5011627;28;20052;-82
2023/05/11 00:03:37;;;;;;;11.15;8.73;;;11.30;99.90;;;;;;5011797;28;20575;-83
2023/05/11 00:06:03;;;;;;;9.90;8.82;;;11.30;99.90;;;;;;5010205;28;20409;-81
2023/05/11 00:08:28;;;;;;;9.90;8.88;;;11.30;99.90;;;;;;5010890;28;20397;-83
2023/05/11 00:10:54;;;;;;;10.63;8.43;;;13.10;99.90;;;;;;4994878;28;20044;-82
2023/05/11 00:13:20;;;;;;;11.88;9.57;;;12.20;99.90;;;;;;5009553;28;20054;-81
2023/05/11 00:15:45;;;;;;;10.23;9.10;;;13.00;99.90;;;;;;4994655;28;20046;-83
2023/05/11 00:18:11;;;;;;;14.27;10.70;;;11.30;99.90;;;;;;5010812;28;20547;-83
2023/05/11 00:20:37;;;;;;;11.05;8.98;;;12.60;99.90;;;;;;4993249;28;20041;-82
2023/05/11 00:23:03;;;;;;;12.73;10.27;;;11.30;99.90;;;;;;5011898;28;20060;-81
2023/05/11 00:25:28;;;;;;;11.50;10.30;;;11.30;99.90;;;;;;4994066;28;20124;-83
2023/05/11 00:27:54;;;;;;;12.45;9.32;;;12.50;99.90;;;;;;5010037;28;20046;-83
2023/05/11 00:30:19;;;;;;;12.05;9.40;;;11.30;99.90;;;;;;4993626;28;20052;-81
2023/05/11 00:32:45;;;;;;;14.77;10.10;;;11.30;99.90;;;;;;5011731;28;20038;-82
2023/05/11 00:35:11;;;;;;;12.32;10.32;;;11.30;99.90;;;;;;4993519;28;20417;-83
2023/05/11 00:37:38;;;;;;;12.88;10.50;;;13.20;99.90;;;;;;5010322;28;20453;-83
2023/05/11 00:40:10;;;;;;;13.23;10.65;;;13.20;99.90;;;;;;5015244;28;20038;-83
2023/05/11 00:42:35;;;;;;;18.63;10.40;;;11.30;99.90;;;;;;5009679;28;20481;-84
2023/05/11 00:45:01;;;;;;;13.93;11.25;;;11.40;99.90;;;;;;4994907;28;20095;-83
2023/05/11 00:47:27;;;;;;;11.60;10.30;;;11.30;99.90;;;;;;5009865;28;20490;-84
2023/05/11 00:49:53;;;;;;;13.55;10.65;;;11.40;99.90;;;;;;4993382;28;20056;-83
2023/05/11 00:52:20;;;;;;;12.82;10.52;;;11.30;99.90;;;;;;5009956;28;20107;-83
2023/05/11 00:54:47;;;;;;;12.30;10.35;;;11.60;99.90;;;;;;5011403;28;20041;-83
2023/05/11 00:57:13;;;;;;;13.45;10.02;;;13.00;99.90;;;;;;5010786;28;20038;-84
2023/05/11 00:59:39;;;;;;;13.70;11.15;;;12.20;99.90;;;;;;5010966;28;20053;-84
2023/05/11 01:02:05;;;;;;;15.27;11.98;;;12.80;99.90;;;;;;4993440;28;20049;-84
2023/05/11 01:04:32;;;;;;;14.98;12.07;;;11.30;99.90;;;;;;5010432;28;20045;-84
2023/05/11 01:07:31;;;;;;;13.95;11.57;;;11.30;99.90;;;;;;5008807;28;20519;-84
2023/05/11 01:10:11;;;;;;;13.93;11.05;;;11.30;99.90;;;;;;4985343;28;20099;-84
2023/05/11 01:13:09;;;;;;;14.40;10.68;;;11.30;99.90;;;;;;5010711;28;20045;-83
2023/05/11 01:15:50;;;;;;;13.05;10.52;;;11.30;99.90;;;;;;5010755;28;20037;-84
2023/05/11 01:18:32;;;;;;;16.75;12.80;;;11.30;99.90;;;;;;5008972;28;20046;-85
2023/05/11 01:21:00;;;;;;;12.85;11.52;;;11.30;99.90;;;;;;5017994;28;20049;-84
2023/05/11 01:23:41;;;;;;;12.65;11.00;;;11.30;99.90;;;;;;5032862;28;20046;-84
2023/05/11 01:26:47;;;;;;;15.18;11.95;;;11.30;99.90;;;;;;5002951;28;20056;-85
2023/05/11 01:29:40;;;;;;;13.35;10.60;;;11.30;99.90;;;;;;4988391;28;20042;-85
2023/05/11 01:32:14;;;;;;;12.40;11.13;;;11.30;99.90;;;;;;5001826;28;20042;-83
2023/05/11 01:34:41;;;;;;;11.75;10.55;;;11.30;99.90;;;;;;5009248;28;20053;-83
2023/05/11 01:37:21;;;;;;;12.38;10.13;;;11.70;99.90;;;;;;4992750;28;20037;-84
2023/05/11 01:39:58;;;;;;;13.50;11.98;;;12.20;99.90;;;;;;5008856;28;20069;-84
2023/05/11 01:42:34;;;;;;;13.10;11.70;;;11.50;99.90;;;;;;5010394;28;20045;-84
2023/05/11 01:45:02;;;;;;;12.57;10.48;;;11.30;99.90;;;;;;5002410;28;20056;-82
2023/05/11 01:47:30;;;;;;;12.07;10.27;;;12.50;99.90;;;;;;5010215;28;20041;-84
2023/05/11 01:49:57;;;;;;;16.38;10.75;;;11.20;99.90;;;;;;5001177;28;20065;-84
2023/05/11 01:52:25;;;;;;;13.10;11.20;;;11.30;99.90;;;;;;5008295;28;20050;-84
2023/05/11 01:54:54;;;;;;;11.65;10.30;;;12.80;99.90;;;;;;5009094;28;20041;-84
2023/05/11 01:57:20;;;;;;;13.65;10.57;;;13.10;99.90;;;;;;4992262;28;20044;-83
2023/05/11 01:59:48;;;;;;;15.98;11.30;;;12.10;99.90;;;;;;5009971;28;20133;-84
2023/05/11 02:02:15;;;;;;;11.13;8.90;;;12.60;99.90;;;;;;5008565;28;20401;-84
2023/05/11 02:04:42;;;;;;;9.70;8.70;;;11.50;99.90;;;;;;5008358;28;20270;-84
2023/05/11 02:07:10;;;;;;;8.73;7.90;;;11.20;99.90;;;;;;5009045;28;20054;-83
2023/05/11 02:09:37;;;;;;;9.82;8.23;;;12.10;99.90;;;;;;5008616;28;20080;-82
2023/05/11 02:12:04;;;;;;;9.25;8.15;;;11.20;99.90;;;;;;5008522;28;20477;-84
2023/05/11 02:14:35;;;;;;;9.05;8.13;;;11.20;99.90;;;;;;4991626;28;20045;-83
2023/05/11 02:17:02;;;;;;;9.10;8.13;;;11.20;99.90;;;;;;5008628;28;20045;-84
2023/05/11 02:19:30;;;;;;;8.70;7.82;;;11.20;99.90;;;;;;4992038;28;20042;-83
2023/05/11 02:21:58;;;;;;;9.15;8.25;;;11.20;99.90;;;;;;5007668;28;20468;-83
2023/05/11 02:24:25;;;;;;;9.85;8.48;;;11.20;99.90;;;;;;5008602;28;20394;-84
2023/05/11 02:26:52;;;;;;;9.32;8.48;;;11.60;99.90;;;;;;5008280;28;20103;-84
2023/05/11 02:29:17;;;;;;;9.52;8.63;;;11.20;99.90;;;;;;4992034;28;20034;-84
2023/05/11 02:31:46;;;;;;;8.75;7.95;;;11.30;99.90;;;;;;5009549;28;20219;-83
2023/05/11 02:34:23;;;;;;;11.32;8.07;;;11.20;99.90;;;;;;4991447;28;20436;-83
2023/05/11 02:36:53;;;;;;;9.38;7.60;;;11.00;99.90;;;;;;4992120;28;20053;-83
2023/05/11 02:39:22;;;;;;;8.35;7.53;;;11.70;99.90;;;;;;4991918;28;20034;-84
2023/05/11 02:41:55;;;;;;;8.45;7.65;;;11.30;99.90;;;;;;5009234;28;20441;-85
2023/05/11 02:44:26;;;;;;;8.00;6.87;;;11.10;99.90;;;;;;4991928;28;20073;-84
2023/05/11 02:46:53;;;;;;;15.90;8.95;;;11.70;99.90;;;;;;5010168;28;20041;-83
2023/05/11 02:49:24;;;;;;;10.25;9.25;;;11.10;99.90;;;;;;5012990;28;20022;-82
2023/05/11 02:51:54;;;;;;;11.93;9.50;;;11.10;99.90;;;;;;5024975;28;20401;-84
2023/05/11 02:54:22;;;;;;;9.82;8.82;;;11.10;99.90;;;;;;5008077;28;20046;-83
2023/05/11 02:56:49;;;;;;;10.88;9.00;;;13.10;99.90;;;;;;5008413;28;20049;-83
2023/05/11 02:59:16;;;;;;;9.52;8.63;;;11.10;99.90;;;;;;5008134;28;20112;-83
2023/05/11 03:01:42;;;;;;;10.32;9.00;;;12.10;99.90;;;;;;5008431;28;20038;-83
2023/05/11 03:04:08;;;;;;;12.25;7.55;;;13.10;99.90;;;;;;5008706;28;20117;-83
2023/05/11 03:06:35;;;;;;;8.95;7.75;;;11.10;99.90;;;;;;4992019;28;20132;-83
2023/05/11 03:09:01;;;;;;;12.05;9.02;;;11.10;99.90;;;;;;5010088;28;20041;-83
2023/05/11 03:11:27;;;;;;;10.35;8.90;;;12.40;99.90;;;;;;5009248;28;20401;-84
2023/05/11 03:13:53;;;;;;;13.02;8.27;;;13.00;99.90;;;;;;5010449;28;20042;-83
2023/05/11 03:16:19;;;;;;;13.10;9.35;;;12.80;99.90;;;;;;5007434;28;20041;-83
2023/05/11 03:18:46;;;;;;;11.10;8.88;;;11.10;99.90;;;;;;5008363;28;20042;-83
2023/05/11 03:21:15;;;;;;;9.35;8.35;;;12.90;99.90;;;;;;4991505;28;20038;-85
2023/05/11 03:23:40;;;;;;;13.60;10.23;;;12.30;99.90;;;;;;5008654;28;20543;-84
2023/05/11 03:26:06;;;;;;;13.48;9.93;;;12.50;99.90;;;;;;4991500;28;20140;-84
2023/05/11 03:28:32;;;;;;;11.25;9.25;;;11.10;99.90;;;;;;5009273;28;20044;-85
2023/05/11 03:30:58;;;;;;;12.57;10.95;;;11.10;99.90;;;;;;5009427;28;20334;-84
2023/05/11 03:33:24;;;;;;;12.25;11.05;;;11.90;99.90;;;;;;5012235;28;20381;-83
2023/05/11 03:35:52;;;;;;;12.65;11.10;;;11.10;99.90;;;;;;5012942;28;20057;-84
2023/05/11 03:38:21;;;;;;;14.43;12.15;;;13.00;99.90;;;;;;5010959;28;20409;-84
2023/05/11 03:40:48;;;;;;;13.07;11.10;;;11.30;99.90;;;;;;5011545;28;20045;-85
2023/05/11 03:43:16;;;;;;;12.65;11.35;;;11.10;99.90;;;;;;5012154;28;20046;-84
2023/05/11 03:45:42;;;;;;;13.57;11.88;;;11.10;99.90;;;;;;5010485;28;20030;-85
2023/05/11 03:48:10;;;;;;;12.75;11.32;;;11.10;99.90;;;;;;5011413;28;20042;-85
2023/05/11 03:50:37;;;;;;;14.57;12.38;;;12.30;99.90;;;;;;5012309;28;20037;-85
2023/05/11 03:53:04;;;;;;;13.48;11.93;;;11.10;99.90;;;;;;5011324;28;20038;-84
2023/05/11 03:55:30;;;;;;;15.52;11.15;;;11.10;99.90;;;;;;5012549;28;20054;-85
2023/05/11 03:57:56;;;;;;;12.88;11.25;;;11.10;99.90;;;;;;5010748;28;20081;-84
2023/05/11 04:00:21;;;;;;;13.38;11.57;;;11.10;99.90;;;;;;5010218;28;20120;-83
2023/05/11 04:02:47;;;;;;;14.13;11.48;;;11.10;99.90;;;;;;5010965;28;20585;-85
2023/05/11 04:05:13;;;;;;;12.80;10.63;;;12.70;99.90;;;;;;5011002;28;20092;-83
2023/05/11 04:07:39;;;;;;;12.65;10.68;;;11.00;99.90;;;;;;5011052;28;20517;-84
2023/05/11 04:10:05;;;;;;;12.15;10.85;;;11.10;99.90;;;;;;5012156;28;20041;-84
2023/05/11 04:12:31;;;;;;;13.95;9.82;;;11.10;99.90;;;;;;5009873;28;20405;-83
2023/05/11 04:14:57;;;;;;;12.90;9.88;;;11.10;99.90;;;;;;5011801;28;20041;-83
2023/05/11 04:17:23;;;;;;;13.82;11.60;;;11.10;99.90;;;;;;5011742;28;20038;-84
2023/05/11 04:19:48;;;;;;;13.50;10.85;;;11.10;99.90;;;;;;4993841;28;20112;-83
2023/05/11 04:22:14;;;;;;;12.27;10.93;;;11.10;99.90;;;;;;5011399;28;20502;-85
2023/05/11 04:24:40;;;;;;;14.43;10.57;;;11.10;99.90;;;;;;5011556;28;20488;-83
2023/05/11 04:27:05;;;;;;;13.35;11.27;;;13.10;99.90;;;;;;4993316;28;20074;-83
2023/05/11 04:29:37;;;;;;;12.93;10.93;;;12.50;99.90;;;;;;5011721;28;20042;-84
2023/05/11 04:32:03;;;;;;;13.23;11.30;;;11.10;99.90;;;;;;5010223;28;20037;-83
2023/05/11 04:34:28;;;;;;;13.02;11.13;;;11.10;99.90;;;;;;5010675;28;20349;-83
2023/05/11 04:36:54;;;;;;;12.30;10.35;;;11.10;99.90;;;;;;5010976;28;20038;-84
2023/05/11 04:39:19;;;;;;;12.32;11.02;;;12.40;99.90;;;;;;5027248;28;20103;-82
2023/05/11 04:41:45;;;;;;;12.32;10.30;;;11.10;99.90;;;;;;5010845;28;20104;-83
2023/05/11 04:44:11;;;;;;;11.15;9.35;;;11.10;99.90;;;;;;4993802;28;20047;-84
2023/05/11 04:46:40;;;;;;;12.13;10.75;;;11.10;99.90;;;;;;4993756;28;20394;-84
2023/05/11 04:49:05;;;;;;;11.43;10.20;;;11.10;99.90;;;;;;5008898;28;20034;-84
2023/05/11 04:51:31;;;;;;;12.20;10.32;;;11.30;99.90;;;;;;4993868;28;20389;-84
2023/05/11 04:53:57;;;;;;;14.23;10.98;;;11.10;99.90;;;;;;5010999;28;20038;-84
2023/05/11 04:56:23;;;;;;;12.95;11.20;;;11.30;99.90;;;;;;5009812;28;20042;-83
2023/05/11 04:58:48;;;;;;;14.18;10.90;;;11.10;99.90;;;;;;5026809;28;20030;-84
2023/05/11 05:01:14;;;;;;;12.93;10.75;;;11.10;99.90;;;;;;5011417;28;20546;-84
2023/05/11 05:03:39;;;;;;;12.68;10.13;;;11.10;99.90;;;;;;5010130;28;20064;-84
2023/05/11 05:06:05;;;;;;;12.85;10.20;;;12.40;99.90;;;;;;4998908;28;20057;-83
2023/05/11 05:08:31;;;;;;;11.52;10.13;;;11.10;99.90;;;;;;4992978;28;20045;-84
2023/05/11 05:10:56;;;;;;;12.27;10.38;;;12.60;99.90;;;;;;5010892;28;20080;-84
2023/05/11 05:13:22;;;;;;;16.15;10.68;;;11.20;99.90;;;;;;5009207;28;20091;-84
2023/05/11 05:15:48;;;;;;;12.32;9.82;;;11.90;99.90;;;;;;4992734;28;20046;-83
2023/05/11 05:18:13;;;;;;;14.48;11.00;;;12.80;99.90;;;;;;4992976;28;20129;-84
2023/05/11 05:20:39;;;;;;;14.90;11.75;;;11.20;99.90;;;;;;5027195;28;20068;-85
2023/05/11 05:23:06;;;;;;;14.48;11.35;;;11.40;99.90;;;;;;5025233;28;20068;-84
2023/05/11 05:25:32;;;;;;;15.52;11.38;;;12.80;99.90;;;;;;4994162;28;20512;-84
2023/05/11 05:27:57;;;;;;;19.67;13.20;;;13.60;99.90;;;;;;5010070;28;20038;-84
2023/05/11 05:30:23;;;;;;;15.65;11.80;;;13.00;99.90;;;;;;5011067;28;20034;-84
2023/05/11 05:32:52;;;;;;;16.67;12.25;;;11.20;99.90;;;;;;5012169;28;20041;-83
2023/05/11 05:35:17;;;;;;;16.25;12.45;;;11.30;99.90;;;;;;5011219;28;20038;-84
2023/05/11 05:37:43;;;;;;;19.52;13.32;;;11.30;99.90;;;;;;5008912;28;20038;-83
2023/05/11 05:40:09;;;;;;;22.38;15.10;;;13.00;99.90;;;;;;5009423;28;20128;-83
2023/05/11 05:42:34;;;;;;;24.27;15.98;;;11.30;99.90;;;;;;5009616;28;20042;-83
2023/05/11 05:45:00;;;;;;;22.98;14.98;;;11.80;99.90;;;;;;5008942;28;20100;-83
2023/05/11 05:47:26;;;;;;;23.75;16.20;;;11.60;99.90;;;;;;5010252;28;20042;-84
2023/05/11 05:49:52;;;;;;;29.83;16.98;;;11.30;99.90;;;;;;5014102;28;20042;-84
2023/05/11 05:52:18;;;;;;;29.83;17.42;;;11.30;99.90;;;;;;4993691;28;20041;-84
2023/05/11 05:54:44;;;;;;;37.25;18.85;;;11.30;99.90;;;;;;5010998;28;20273;-84
2023/05/11 05:57:09;;;;;;;31.45;17.17;;;11.30;99.90;;;;;;4992322;28;20305;-84
2023/05/11 05:59:35;;;;;;;34.78;17.60;;;13.20;99.90;;;;;;5023713;28;20107;-83
2023/05/11 06:02:01;;;;;;;35.22;18.77;;;11.30;99.90;;;;;;5009043;28;20045;-83
2023/05/11 06:04:26;;;;;;;42.20;21.60;;;11.70;99.90;;;;;;5008811;28;20030;-84
2023/05/11 06:06:52;;;;;;;49.17;28.60;;;11.40;99.90;;;;;;5007953;28;20456;-84
2023/05/11 06:09:18;;;;;;;41.85;24.77;;;11.40;99.90;;;;;;4992237;28;20049;-83
2023/05/11 06:11:43;;;;;;;35.50;19.30;;;12.90;99.90;;;;;;5009752;28;20045;-83
2023/05/11 06:14:09;;;;;;;38.78;20.73;;;11.50;99.90;;;;;;5009239;28;20064;-82
2023/05/11 06:16:34;;;;;;;38.35;18.88;;;11.50;99.90;;;;;;4996860;28;20042;-84
2023/05/11 06:19:00;;;;;;;34.92;18.80;;;11.50;99.90;;;;;;4993970;28;20049;-83
2023/05/11 06:21:27;;;;;;;34.20;17.35;;;12.00;99.90;;;;;;5011011;28;20042;-85
2023/05/11 06:23:52;;;;;;;36.20;18.45;;;11.50;99.90;;;;;;4992742;28;20042;-86
2023/05/11 06:26:23;;;;;;;32.83;18.05;;;11.50;99.90;;;;;;5009595;28;20061;-83
2023/05/11 06:28:49;;;;;;;39.92;19.98;;;11.50;99.90;;;;;;4994109;28;20497;-83
2023/05/11 06:31:15;;;;;;;38.95;23.38;;;11.60;99.90;;;;;;4993303;28;20049;-82
2023/05/11 06:33:40;;;;;;;29.90;17.17;;;13.30;99.90;;;;;;4991479;28;20485;-82
2023/05/11 06:36:06;;;;;;;29.70;15.65;;;11.60;99.90;;;;;;5010665;28;20048;-81
2023/05/11 06:38:32;;;;;;;31.30;15.20;;;11.60;99.90;;;;;;5009877;28;20038;-81
2023/05/11 06:40:58;;;;;;;27.70;16.70;;;13.20;99.90;;;;;;5008228;28;20042;-83
2023/05/11 06:43:23;;;;;;;34.63;18.52;;;11.60;99.90;;;;;;4993287;28;20077;-83
2023/05/11 06:45:50;;;;;;;31.73;16.98;;;13.90;99.90;;;;;;5026788;28;20505;-84
2023/05/11 06:48:16;;;;;;;28.77;15.48;;;12.50;99.90;;;;;;5009449;28;20041;-84
2023/05/11 06:50:42;;;;;;;25.95;15.52;;;12.50;99.90;;;;;;5010274;28;20034;-83
2023/05/11 06:53:09;;;;;;;30.50;15.90;;;12.40;99.90;;;;;;4991325;28;20084;-84
2023/05/11 06:55:35;;;;;;;27.50;15.88;;;12.80;99.90;;;;;;5008166;28;20041;-84
2023/05/11 06:58:00;;;;;;;22.45;13.85;;;13.10;99.90;;;;;;4994156;28;20405;-84
2023/05/11 07:00:29;;;;;;;22.55;15.00;;;13.20;99.90;;;;;;5014118;28;20125;-83
2023/05/11 07:02:55;;;;;;;23.83;15.48;;;13.40;99.90;;;;;;5008896;28;20136;-83
2023/05/11 07:05:20;;;;;;;21.05;15.05;;;11.80;99.90;;;;;;5012220;28;20045;-83
2023/05/11 07:07:46;;;;;;;23.65;16.05;;;12.20;99.90;;;;;;5033328;28;20046;-83
2023/05/11 07:10:14;;;;;;;24.30;16.52;;;12.80;99.90;;;;;;5019486;28;20065;-83
2023/05/11 07:12:39;;;;;;;24.42;16.38;;;11.80;99.90;;;;;;5016086;28;20043;-83
2023/05/11 07:15:05;;;;;;;23.75;15.88;;;11.90;99.90;;;;;;5012628;28;20520;-83
2023/05/11 07:17:31;;;;;;;21.35;15.48;;;11.90;99.90;;;;;;5015028;28;20041;-84
2023/05/11 07:19:57;;;;;;;20.52;14.07;;;11.90;99.90;;;;;;5013231;28;20128;-83
2023/05/11 07:22:23;;;;;;;20.67;14.55;;;11.90;99.90;;;;;;5014342;28;20407;-84
2023/05/11 07:24:48;;;;;;;24.13;14.85;;;12.00;99.90;;;;;;5013139;28;20371;-83
2023/05/11 07:27:14;;;;;;;19.92;14.82;;;11.90;99.90;;;;;;5016204;28;20557;-84
2023/05/11 07:29:40;;;;;;;22.17;15.20;;;12.00;99.90;;;;;;5012881;28;20069;-84
2023/05/11 07:32:06;;;;;;;21.30;15.05;;;12.00;99.90;;;;;;5015083;28;20587;-83
2023/05/11 07:34:32;;;;;;;21.92;15.70;;;12.00;99.90;;;;;;5014134;28;20060;-83
2023/05/11 07:36:58;;;;;;;24.90;16.17;;;12.00;99.90;;;;;;5011853;28;20096;-84
2023/05/11 07:39:23;;;;;;;23.05;15.70;;;12.00;99.90;;;;;;4996686;28;20041;-83
2023/05/11 07:41:49;;;;;;;23.95;16.88;;;12.00;99.90;;;;;;5012867;28;20466;-84
2023/05/11 07:44:15;;;;;;;22.67;15.50;;;12.10;99.90;;;;;;5014560;28;20081;-83
2023/05/11 07:46:41;;;;;;;19.75;14.48;;;12.10;99.90;;;;;;5012585;28;20050;-84
2023/05/11 07:49:08;;;;;;;18.25;13.90;;;12.10;99.90;;;;;;5012703;28;20056;-84
2023/05/11 07:51:34;;;;;;;18.75;13.32;;;13.00;99.90;;;;;;5011801;28;20398;-85
2023/05/11 07:54:00;;;;;;;19.42;16.33;;;13.10;99.90;;;;;;5012365;28;20050;-83
2023/05/11 07:56:26;;;;;;;26.70;18.55;;;13.20;99.90;;;;;;4980461;28;20595;-83
2023/05/11 07:58:52;;;;;;;19.92;15.55;;;12.20;99.90;;;;;;5029252;28;20042;-84
2023/05/11 08:01:17;;;;;;;15.00;11.98;;;13.80;99.90;;;;;;5031732;28;20398;-84
2023/05/11 08:03:43;;;;;;;15.82;12.00;;;13.90;99.90;;;;;;5012774;28;20394;-83
2023/05/11 08:06:08;;;;;;;15.30;11.25;;;12.30;99.90;;;;;;5010515;28;20150;-84
2023/05/11 08:08:34;;;;;;;14.98;11.88;;;13.90;99.90;;;;;;5011278;28;20037;-84
2023/05/11 08:11:00;;;;;;;14.85;12.23;;;12.30;99.90;;;;;;5011441;28;20041;-82
2023/05/11 08:13:26;;;;;;;14.65;10.90;;;14.20;99.90;;;;;;5010111;28;20246;-84
2023/05/11 08:15:51;;;;;;;14.90;11.75;;;12.40;99.90;;;;;;5012836;28;20401;-85
2023/05/11 08:18:17;;;;;;;18.48;12.18;;;12.40;99.90;;;;;;4995090;28;20042;-84
2023/05/11 08:20:42;;;;;;;17.77;11.75;;;12.40;99.90;;;;;;5012136;28;20383;-84
2023/05/11 08:23:09;;;;;;;17.10;11.82;;;12.40;99.90;;;;;;4995151;28;20042;-82
2023/05/11 08:25:35;;;;;;;16.75;11.43;;;12.40;99.90;;;;;;4994292;28;20069;-83
2023/05/11 08:28:01;;;;;;;14.60;11.23;;;12.40;99.90;;;;;;4994427;28;20085;-83
2023/05/11 08:30:27;;;;;;;13.93;10.80;;;13.40;99.90;;;;;;4986411;28;20485;-83
2023/05/11 08:32:52;;;;;;;15.57;12.10;;;12.50;99.90;;;;;;5012556;28;20100;-82
2023/05/11 08:35:18;;;;;;;22.02;13.38;;;12.50;99.90;;;;;;5013035;28;20050;-83
2023/05/11 08:37:44;;;;;;;18.10;12.60;;;13.50;99.90;;;;;;5011715;28;20129;-83
2023/05/11 08:40:12;;;;;;;18.02;12.77;;;12.80;99.90;;;;;;5011656;28;20374;-83
2023/05/11 08:42:42;;;;;;;22.55;12.38;;;14.10;99.90;;;;;;5010794;28;20111;-82
2023/05/11 08:45:09;;;;;;;24.15;13.52;;;14.60;99.90;;;;;;5011328;28;20092;-84
2023/05/11 08:47:38;;;;;;;21.08;14.02;;;12.50;99.90;;;;;;5015206;28;20405;-83
2023/05/11 08:50:06;;;;;;;21.92;15.63;;;13.00;99.90;;;;;;5013059;28;20043;-84
2023/05/11 08:52:33;;;;;;;23.75;14.95;;;12.50;99.90;;;;;;4980119;28;20041;-82
2023/05/11 08:54:58;;;;;;;19.67;13.82;;;13.10;99.90;;;;;;5019630;28;20054;-84
2023/05/11 08:57:27;;;;;;;19.85;13.45;;;12.50;99.90;;;;;;5012405;28;20046;-84
2023/05/11 08:59:53;;;;;;;22.33;14.05;;;12.50;99.90;;;;;;5011683;28;20045;-84
2023/05/11 09:02:19;;;;;;;21.55;14.50;;;11.40;99.90;;;;;;4992792;28;20129;-83
2023/05/11 09:04:45;;;;;;;17.80;13.40;;;14.40;99.90;;;;;;4994126;28;20121;-84
2023/05/11 09:07:14;;;;;;;26.67;18.17;;;12.90;99.90;;;;;;5010372;28;20069;-83
2023/05/11 09:09:40;;;;;;;25.45;16.15;;;13.20;99.90;;;;;;5009475;28;20107;-83
2023/05/11 09:12:08;;;;;;;23.27;16.60;;;12.60;99.90;;;;;;5010679;28;20049;-84
2023/05/11 09:14:33;;;;;;;23.27;15.10;;;13.60;99.90;;;;;;5010434;28;20394;-84
2023/05/11 09:16:59;;;;;;;22.13;15.00;;;14.00;99.90;;;;;;5026456;28;20050;-82
2023/05/11 09:19:25;;;;;;;19.83;13.73;;;12.70;99.90;;;;;;4995486;28;20038;-84
2023/05/11 09:21:53;;;;;;;19.67;14.15;;;12.70;99.90;;;;;;5011707;28;20045;-83
2023/05/11 09:24:21;;;;;;;19.20;14.15;;;12.70;99.90;;;;;;5009858;28;20101;-82
2023/05/11 09:26:47;;;;;;;18.98;13.35;;;12.80;99.90;;;;;;5011342;28;20077;-84
2023/05/11 09:29:13;;;;;;;22.52;15.48;;;12.90;99.90;;;;;;5008854;28;20132;-85
2023/05/11 09:31:43;;;;;;;19.65;13.98;;;13.10;99.90;;;;;;5011878;28;20077;-85
2023/05/11 09:34:21;;;;;;;17.90;13.32;;;14.70;99.90;;;;;;5011247;28;20041;-85
2023/05/11 09:36:55;;;;;;;19.23;12.45;;;13.00;99.90;;;;;;5010773;28;20050;-84
2023/05/11 09:39:34;;;;;;;20.92;13.57;;;13.00;99.90;;;;;;5009561;28;20046;-83
2023/05/11 09:42:17;;;;;;;19.08;13.60;;;13.00;99.90;;;;;;5009198;28;20052;-83
2023/05/11 09:44:44;;;;;;;19.10;13.63;;;13.10;99.90;;;;;;5001744;28;20030;-83
2023/05/11 09:47:18;;;;;;;19.10;13.45;;;13.80;99.90;;;;;;5009152;28;20046;-84
2023/05/11 09:49:45;;;;;;;25.27;15.88;;;13.10;99.90;;;;;;5010688;28;20041;-84
2023/05/11 09:52:14;;;;;;;19.90;14.10;;;13.20;99.90;;;;;;5009007;28;20497;-85
2023/05/11 09:54:48;;;;;;;17.20;13.25;;;13.20;99.90;;;;;;5008895;28;20490;-84
2023/05/11 09:57:23;;;;;;;22.15;14.13;;;13.20;99.90;;;;;;4992053;28;20072;-84
2023/05/11 09:59:49;;;;;;;18.92;13.48;;;13.20;99.90;;;;;;5010635;28;20078;-83
2023/05/11 10:02:23;;;;;;;19.42;14.07;;;13.10;99.90;;;;;;4992781;28;20143;-84
2023/05/11 10:04:50;;;;;;;17.48;12.50;;;13.20;99.90;;;;;;5011209;28;20038;-84
2023/05/11 10:07:33;;;;;;;18.35;13.55;;;13.20;99.90;;;;;;5009712;28;20089;-84
2023/05/11 10:10:04;;;;;;;16.05;13.27;;;13.30;99.90;;;;;;5012988;28;20034;-84
2023/05/11 10:12:37;;;;;;;20.35;13.63;;;13.30;99.90;;;;;;5014936;28;20042;-84
2023/05/11 10:15:20;;;;;;;19.33;14.82;;;14.70;99.90;;;;;;4999219;28;20050;-84
2023/05/11 10:17:47;;;;;;;20.75;14.88;;;13.40;99.90;;;;;;5009393;28;20038;-85
2023/05/11 10:20:13;;;;;;;15.95;13.05;;;13.50;99.90;;;;;;5014803;28;20050;-85
2023/05/11 10:23:04;;;;;;;19.83;13.00;;;15.20;99.90;;;;;;5023702;28;20042;-85
2023/05/11 10:25:30;;;;;;;21.77;14.05;;;13.60;99.90;;;;;;5017744;28;20034;-84
2023/05/11 10:27:57;;;;;;;19.10;13.63;;;13.90;99.90;;;;;;5009176;28;20049;-84
2023/05/11 10:30:23;;;;;;;19.25;12.57;;;13.80;99.90;;;;;;5009962;28;20072;-86
2023/05/11 10:32:50;;;;;;;18.30;14.30;;;14.00;99.90;;;;;;5008600;28;20475;-84
2023/05/11 10:35:16;;;;;;;15.85;12.55;;;13.90;99.90;;;;;;5008791;28;20452;-84
2023/05/11 10:37:42;;;;;;;24.70;18.35;;;14.00;99.90;;;;;;5025563;28;20100;-83
2023/05/11 10:40:08;;;;;;;18.92;15.13;;;14.10;99.90;;;;;;5011485;28;20038;-84
2023/05/11 10:43:19;;;;;;;19.23;13.15;;;14.20;99.90;;;;;;5013369;28;20404;-84
2023/05/11 10:46:16;;;;;;;14.35;11.43;;;14.30;99.90;;;;;;4981075;28;20088;-84
2023/05/11 10:48:48;;;;;;;14.95;11.48;;;14.40;99.90;;;;;;5013260;28;20045;-84
2023/05/11 10:51:58;;;;;;;17.98;11.85;;;14.40;99.90;;;;;;5013150;28;20125;-85
2023/05/11 10:55:06;;;;;;;11.70;10.13;;;14.50;99.90;;;;;;4935516;29;20047;-84
2023/05/11 10:58:04;;;;;;;13.77;11.18;;;14.60;99.90;;;;;;4950799;29;20573;-84
2023/05/11 11:00:57;;;;;;;14.13;11.23;;;14.70;99.90;;;;;;4995100;28;20073;-84
2023/05/11 11:03:23;;;;;;;12.40;10.90;;;14.70;99.90;;;;;;5011740;28;20412;-85
2023/05/11 11:05:49;;;;;;;17.00;12.55;;;14.70;99.90;;;;;;4997337;28;20053;-82
2023/05/11 11:08:15;;;;;;;15.32;12.98;;;14.70;99.90;;;;;;5013497;28;20073;-85
2023/05/11 11:10:45;;;;;;;11.25;10.07;;;14.80;99.90;;;;;;4998891;28;20129;-86
2023/05/11 11:13:16;;;;;;;15.25;10.68;;;14.50;99.90;;;;;;5017741;28;20086;-85
2023/05/11 11:15:56;;;;;;;11.95;10.68;;;16.40;99.90;;;;;;4990253;28;20096;-85
2023/05/11 11:18:28;;;;;;;11.15;8.93;;;14.90;99.90;;;;;;5020982;28;20080;-85
2023/05/11 11:20:55;;;;;;;12.10;9.20;;;16.00;99.90;;;;;;5015449;28;20069;-84
2023/05/11 11:23:43;;;;;;;10.88;8.73;;;15.00;99.90;;;;;;5014440;28;20037;-83
2023/05/11 11:26:15;;;;;;;8.00;7.20;;;15.10;99.90;;;;;;4997031;28;20041;-84
2023/05/11 11:28:53;;;;;;;7.78;6.93;;;15.10;99.90;;;;;;4997467;28;20038;-85
2023/05/11 11:31:29;;;;;;;7.22;6.60;;;15.20;99.90;;;;;;5014121;28;20042;-86
2023/05/11 11:33:57;;;;;;;8.68;7.05;;;15.30;99.90;;;;;;5015132;28;20045;-82
2023/05/11 11:36:54;;;;;;;7.35;6.63;;;15.30;99.90;;;;;;5019605;28;20046;-85
2023/05/11 11:39:29;;;;;;;7.55;6.57;;;15.40;99.90;;;;;;4998313;28;20148;-84
2023/05/11 11:42:18;;;;;;;9.02;6.75;;;15.50;99.90;;;;;;5014974;28;20046;-82
2023/05/11 11:44:45;;;;;;;7.82;6.43;;;15.50;99.90;;;;;;4994015;28;20133;-82
2023/05/11 11:47:11;;;;;;;6.75;5.88;;;15.50;99.90;;;;;;5012073;28;20056;-83
2023/05/11 11:49:38;;;;;;;6.85;5.85;;;15.50;99.90;;;;;;4991920;28;20046;-83
2023/05/11 11:52:05;;;;;;;6.75;5.30;;;15.50;99.90;;;;;;5010233;28;20116;-83
2023/05/11 11:54:43;;;;;;;6.68;5.53;;;15.50;99.90;;;;;;5012402;28;20045;-82
2023/05/11 11:57:32;;;;;;;5.47;5.05;;;15.50;99.90;;;;;;5013559;28;20046;-83
2023/05/11 12:00:05;;;;;;;6.20;5.60;;;15.50;99.90;;;;;;4992256;28;20069;-83
2023/05/11 12:02:32;;;;;;;6.40;5.25;;;15.60;99.90;;;;;;5008724;28;20112;-82
2023/05/11 12:05:00;;;;;;;8.73;5.70;;;15.70;99.90;;;;;;5010860;28;20038;-82
2023/05/11 12:07:31;;;;;;;6.72;4.82;;;15.80;99.90;;;;;;4992785;28;20061;-83
2023/05/11 12:09:56;;;;;;;7.53;5.43;;;15.80;99.90;;;;;;5010725;28;20046;-83
2023/05/11 12:12:22;;;;;;;6.47;5.13;;;16.50;99.90;;;;;;5008635;28;20464;-83
2023/05/11 12:14:48;;;;;;;5.22;4.72;;;16.10;99.90;;;;;;5009627;28;20049;-83
2023/05/11 12:17:26;;;;;;;10.98;9.82;;;17.40;99.90;;;;;;5009561;28;20045;-83
2023/05/11 12:19:52;;;;;;;6.43;5.47;;;16.00;99.90;;;;;;5007220;28;20093;-83
2023/05/11 12:22:23;;;;;;;9.57;5.85;;;16.10;99.90;;;;;;5009459;28;20037;-82
2023/05/11 12:24:49;;;;;;;5.53;4.25;;;16.20;99.90;;;;;;5009137;28;20077;-83
2023/05/11 12:27:18;;;;;;;7.60;3.83;;;16.30;99.90;;;;;;5009262;28;20041;-83
2023/05/11 12:29:51;;;;;;;4.88;4.38;;;16.70;99.90;;;;;;5011514;28;20038;-83
2023/05/11 12:32:30;;;;;;;3.83;3.17;;;17.20;99.90;;;;;;4994738;28;20048;-83
2023/05/11 12:35:07;;;;;;;3.70;3.35;;;16.40;99.90;;;;;;5009158;28;20050;-83
2023/05/11 12:37:35;;;;;;;3.97;2.70;;;16.40;99.90;;;;;;5012510;28;20041;-83
2023/05/11 12:40:00;;;;;;;3.58;2.15;;;16.40;99.90;;;;;;5014282;28;20120;-83